Home   Weather   Spain   Barcelona   Past weeks
Flag for Spain

Past Weather in Barcelona, Barcelona, Spain — Yesterday and Last 2 Weeks

Currently: 46 °F. Clear. (Weather station: Barcelona Airport, Spain). See more current weather

Past Weather in Barcelona — Graph

°F

Barcelona Temperature Yesterday

Maximum temperature yesterday: 54 °F (at 12:30 pm)
Minimum temperature yesterday: 37 °F (at 4:30 am)
Average temperature yesterday: 45 °F

High & Low Weather Summary for the Past Weeks

 TemperatureHumidityPressure
High57 °F (Jan 25, 3:00 pm)81% (Jan 20, 8:00 am)30.39 "Hg (Jan 20, 8:00 am)
Low30 °F (Jan 22, 8:00 am)19% (Jan 21, 2:00 pm)29.39 "Hg (Jan 17, 10:00 pm)
Average44 °F59%30.08 "Hg
* Reported Jan 17 10:00 pm — Feb 1 10:30 pm, Barcelona. Weather by CustomWeather, © 2023

Note: Actual official high and low records may vary slightly from our data, if they occured in-between our weather recording intervals... More about our weather records

Barcelona Weather History for the Previous 24 Hours

Scroll right to see more
 ConditionsComfort  
Time TempWeatherWind HumidityBarometerVisibility
10:30 pm
Wed, Feb 1
45 °FClear.7 mph66%30.36 "Hg10 mi
10:00 pm45 °FClear.8 mph71%30.36 "Hg10 mi
9:30 pm45 °FPassing clouds.3 mph76%30.36 "HgN/A
9:00 pm46 °FPassing clouds.3 mph71%30.36 "HgN/A
8:00 pm48 °FClear.7 mph66%30.36 "Hg10 mi
7:30 pm48 °FClear.7 mph71%30.36 "Hg10 mi
7:00 pm48 °FClear.5 mph71%30.36 "Hg10 mi
6:30 pm50 °FClear.6 mph67%30.33 "Hg10 mi
6:00 pm52 °FSunny.8 mph62%30.33 "Hg10 mi
5:00 pm54 °FSunny.9 mph58%30.33 "Hg10 mi
4:30 pm54 °FSunny.10 mph58%30.33 "Hg10 mi
4:00 pm54 °FSunny.9 mph58%30.33 "Hg10 mi
3:30 pm54 °FPassing clouds.9 mph58%30.33 "HgN/A
2:30 pm54 °FSunny.10 mph58%30.33 "Hg10 mi
2:00 pm54 °FPassing clouds.7 mph51%30.33 "HgN/A
1:00 pm54 °FSunny.8 mph47%30.36 "Hg10 mi
12:30 pm54 °FPassing clouds.12 mph47%30.39 "HgN/A
12:00 pm52 °FSunny.14 mph54%30.39 "Hg10 mi
11:30 am50 °FSunny.14 mph54%30.39 "Hg10 mi
11:00 am46 °FPassing clouds.14 mph62%30.39 "HgN/A
10:30 am45 °FSunny.15 mph66%30.39 "Hg10 mi
10:00 am43 °FSunny.16 mph66%30.39 "Hg10 mi
9:30 am41 °FPassing clouds.14 mph70%30.36 "HgN/A
9:00 am39 °FPassing clouds.16 mph75%30.36 "HgN/A
8:30 am37 °FPassing clouds.16 mph75%30.36 "HgN/A
8:00 am37 °FClear.12 mph75%30.36 "Hg10 mi
7:30 am37 °FClear.15 mph75%30.36 "Hg10 mi
7:00 am37 °FClear.15 mph75%30.36 "Hg10 mi
6:30 am37 °FClear.13 mph75%30.33 "Hg10 mi
6:00 am37 °FClear.13 mph75%30.33 "Hg10 mi
5:30 am39 °FClear.10 mph70%30.33 "Hg10 mi
5:00 am39 °FPassing clouds.10 mph70%30.33 "HgN/A
4:30 am37 °FClear.12 mph75%30.33 "Hg10 mi
4:00 am39 °FClear.8 mph70%30.33 "Hg10 mi
3:30 am39 °FClear.13 mph70%30.33 "Hg10 mi
3:00 am41 °FClear.9 mph66%30.33 "Hg10 mi
2:30 am41 °FClear.9 mph66%30.33 "Hg10 mi
2:00 am41 °FClear.9 mph70%30.33 "Hg10 mi
12:30 am43 °FClear.9 mph66%30.33 "Hg10 mi
12:00 am43 °FClear.8 mph66%30.33 "Hg10 mi
Weather by CustomWeather, © 2023

See weather overview